Time;durP1;ratioP1;P1;durP2;ratioP2;P2;SDS_P1;SDS_P2;PMS_P1;PMS_P2;Temp;Humidity;BMP_temperature;BMP_pressure;BME280_temperature;BME280_humidity;BME280_pressure;Samples;Min_cycle;Max_cycle;Signal;HPM_P1;HPM_P2
2021/04/16 00:02:05;;;;;;;10.32;6.63;;;4.90;30.30;;;;;;5065971;28;20391;-76
2021/04/16 00:04:31;;;;;;;10.23;6.27;;;5.00;29.80;;;;;;5082853;28;20380;-76
2021/04/16 00:06:57;;;;;;;12.93;6.70;;;5.00;30.10;;;;;;5080987;28;20759;-76
2021/04/16 00:09:23;;;;;;;9.70;6.78;;;5.00;29.80;;;;;;5085078;28;20766;-76
2021/04/16 00:11:50;;;;;;;9.25;6.53;;;4.90;30.50;;;;;;5093323;28;20379;-76
2021/04/16 00:14:16;;;;;;;10.15;6.18;;;4.90;30.10;;;;;;5065882;28;20419;-76
2021/04/16 00:16:41;;;;;;;13.03;6.60;;;4.90;30.10;;;;;;5086374;28;20425;-75
2021/04/16 00:19:08;;;;;;;6.55;5.95;;;4.90;29.80;;;;;;5068345;28;20408;-76
2021/04/16 00:21:33;;;;;;;12.90;6.68;;;4.90;30.40;;;;;;5067972;28;20383;-77
2021/04/16 00:23:59;;;;;;;8.82;6.68;;;4.90;31.10;;;;;;5078887;28;20384;-76
2021/04/16 00:26:24;;;;;;;11.13;6.45;;;4.90;31.30;;;;;;5058218;28;20395;-76
2021/04/16 00:28:50;;;;;;;12.68;6.25;;;4.90;30.90;;;;;;5056622;28;20403;-76
2021/04/16 00:31:20;;;;;;;11.95;6.60;;;4.80;31.10;;;;;;5057868;28;20467;-76
2021/04/16 00:33:45;;;;;;;11.18;6.32;;;4.80;30.70;;;;;;5073713;28;20388;-76
2021/04/16 00:36:12;;;;;;;8.80;6.20;;;4.80;31.20;;;;;;5073478;28;20402;-76
2021/04/16 00:38:38;;;;;;;9.45;6.57;;;4.80;31.50;;;;;;5073209;28;20908;-76
2021/04/16 00:41:07;;;;;;;7.68;6.30;;;4.80;31.70;;;;;;5073279;28;20427;-76
2021/04/16 00:43:35;;;;;;;8.85;6.70;;;4.80;30.30;;;;;;5072950;28;20380;-76
2021/04/16 00:46:40;;;;;;;7.55;5.63;;;4.90;30.30;;;;;;5055430;28;20426;-76
2021/04/16 00:49:08;;;;;;;10.68;6.13;;;4.80;30.80;;;;;;5056476;28;20814;-76
2021/04/16 00:51:50;;;;;;;8.70;7.00;;;4.80;30.70;;;;;;5074843;28;20390;-76
2021/04/16 00:54:21;;;;;;;9.77;6.13;;;4.90;30.90;;;;;;5073994;28;20383;-76
2021/04/16 00:56:49;;;;;;;7.20;6.03;;;4.90;31.00;;;;;;5073844;28;20429;-76
2021/04/16 00:59:20;;;;;;;13.20;6.70;;;4.90;31.10;;;;;;5055758;28;20392;-76
2021/04/16 01:01:45;;;;;;;8.88;5.93;;;5.00;30.70;;;;;;5055328;28;20431;-76
2021/04/16 01:04:12;;;;;;;16.37;7.37;;;5.00;30.80;;;;;;5073958;28;20383;-76
2021/04/16 01:06:38;;;;;;;10.73;6.35;;;5.00;32.40;;;;;;5074089;28;20384;-76
2021/04/16 01:09:04;;;;;;;9.13;6.65;;;5.10;32.10;;;;;;5057674;28;20410;-75
2021/04/16 01:11:30;;;;;;;9.60;6.40;;;5.30;31.10;;;;;;5069529;28;20390;-75
2021/04/16 01:13:56;;;;;;;11.00;7.07;;;5.30;31.10;;;;;;5055285;28;20423;-77
2021/04/16 01:16:29;;;;;;;10.07;6.82;;;5.40;31.00;;;;;;5072120;28;20385;-77
2021/04/16 01:18:55;;;;;;;12.90;7.47;;;5.40;31.60;;;;;;5073734;28;20417;-77
2021/04/16 01:21:24;;;;;;;13.85;7.85;;;5.40;31.70;;;;;;5073164;28;20388;-77
2021/04/16 01:24:14;;;;;;;14.57;7.50;;;5.40;31.40;;;;;;5073302;28;20411;-76
2021/04/16 01:26:40;;;;;;;15.20;7.97;;;5.40;32.00;;;;;;5054349;28;20395;-76
2021/04/16 01:29:07;;;;;;;9.43;6.65;;;5.30;33.40;;;;;;5072097;28;20407;-77
2021/04/16 01:31:33;;;;;;;9.48;6.65;;;5.40;30.80;;;;;;5075079;28;20380;-77
2021/04/16 01:33:59;;;;;;;7.87;6.50;;;5.40;32.20;;;;;;5072265;28;20394;-78
2021/04/16 01:36:30;;;;;;;9.98;6.75;;;5.50;31.60;;;;;;5072724;28;20387;-76
2021/04/16 01:38:57;;;;;;;9.57;6.45;;;5.40;31.40;;;;;;5085009;22;20384;-81
2021/04/16 01:41:24;;;;;;;8.32;6.38;;;5.50;30.60;;;;;;5060529;28;20393;-80
2021/04/16 01:43:59;;;;;;;9.43;6.15;;;5.50;30.20;;;;;;5042092;28;20443;-80
2021/04/16 01:46:27;;;;;;;8.63;6.43;;;5.50;30.10;;;;;;5046196;28;20404;-82
2021/04/16 01:48:54;;;;;;;9.15;6.43;;;5.40;30.50;;;;;;5069454;28;20440;-80
2021/04/16 01:51:31;;;;;;;8.40;6.40;;;5.40;30.80;;;;;;5067555;28;20396;-81
2021/04/16 01:54:13;;;;;;;10.73;5.90;;;5.40;30.70;;;;;;5065366;28;20374;-78
2021/04/16 01:56:40;;;;;;;8.25;6.50;;;5.40;31.20;;;;;;5075017;28;20401;-78
2021/04/16 01:59:15;;;;;;;9.45;6.78;;;5.40;31.00;;;;;;5075068;28;20457;-82
2021/04/16 02:01:43;;;;;;;10.07;6.50;;;5.40;31.10;;;;;;5056931;28;20433;-80
2021/04/16 02:04:10;;;;;;;10.38;6.63;;;5.50;31.30;;;;;;5073987;28;20860;-82
2021/04/16 02:06:36;;;;;;;12.18;6.63;;;5.50;31.70;;;;;;5071868;28;20401;-81
2021/04/16 02:09:06;;;;;;;9.23;6.40;;;5.50;31.20;;;;;;5053194;28;20492;-81
2021/04/16 02:11:32;;;;;;;10.05;6.38;;;5.50;32.30;;;;;;5041574;28;20882;-81
2021/04/16 02:13:58;;;;;;;8.32;6.30;;;5.50;32.10;;;;;;5023599;28;20697;-81
2021/04/16 02:16:24;;;;;;;8.27;7.10;;;5.60;32.70;;;;;;5035258;28;20640;-80
2021/04/16 02:18:52;;;;;;;8.00;6.40;;;5.50;34.40;;;;;;5034883;28;20391;-80
2021/04/16 02:21:18;;;;;;;9.20;6.78;;;5.60;33.00;;;;;;5034853;28;20400;-83
2021/04/16 02:23:43;;;;;;;12.18;6.80;;;5.60;33.00;;;;;;5054700;28;20389;-81
2021/04/16 02:26:09;;;;;;;8.02;6.65;;;5.50;32.80;;;;;;5055622;28;20420;-81
2021/04/16 02:28:35;;;;;;;9.25;6.50;;;5.60;34.90;;;;;;5038790;28;20874;-81
2021/04/16 02:31:00;;;;;;;11.10;6.80;;;5.60;32.80;;;;;;5056344;28;20800;-81
2021/04/16 02:33:26;;;;;;;9.77;6.80;;;5.60;32.40;;;;;;5055869;28;20385;-82
2021/04/16 02:35:52;;;;;;;10.55;6.30;;;5.60;31.70;;;;;;5060122;28;20393;-80
2021/04/16 02:38:17;;;;;;;11.35;6.80;;;5.60;31.80;;;;;;5065297;28;20401;-81
2021/04/16 02:40:43;;;;;;;13.90;7.15;;;5.50;32.40;;;;;;5043882;28;20408;-81
2021/04/16 02:43:09;;;;;;;10.65;6.80;;;5.50;32.60;;;;;;5055136;28;20397;-82
2021/04/16 02:45:35;;;;;;;13.38;7.32;;;5.50;32.40;;;;;;5037987;28;20877;-81
2021/04/16 02:48:00;;;;;;;13.83;7.10;;;5.50;32.10;;;;;;5037215;28;20441;-81
2021/04/16 02:50:29;;;;;;;10.57;6.90;;;5.50;32.10;;;;;;5055766;28;20415;-82
2021/04/16 02:52:55;;;;;;;13.00;6.65;;;5.50;31.80;;;;;;5053091;28;20425;-80
2021/04/16 02:55:20;;;;;;;9.40;6.75;;;5.50;32.10;;;;;;5038560;28;20393;-81
2021/04/16 02:57:46;;;;;;;9.20;6.57;;;5.50;32.40;;;;;;5057736;28;20401;-80
2021/04/16 03:00:20;;;;;;;13.87;7.00;;;5.60;31.90;;;;;;5045529;28;20393;-80
2021/04/16 03:02:46;;;;;;;12.15;6.70;;;5.50;31.90;;;;;;5051426;28;20389;-80
2021/04/16 03:05:13;;;;;;;10.50;7.27;;;5.60;32.10;;;;;;5068833;28;20401;-80
2021/04/16 03:07:39;;;;;;;9.60;6.35;;;5.60;32.50;;;;;;5066880;28;20547;-81
2021/04/16 03:10:07;;;;;;;10.80;6.80;;;5.60;32.10;;;;;;5052219;28;20413;-81
2021/04/16 03:12:32;;;;;;;8.87;6.93;;;5.60;32.80;;;;;;5069585;28;20443;-80
2021/04/16 03:14:58;;;;;;;9.68;7.15;;;5.50;32.90;;;;;;5052221;28;20457;-80
2021/04/16 03:17:24;;;;;;;12.02;6.65;;;5.50;32.40;;;;;;5076107;28;20445;-78
2021/04/16 03:19:49;;;;;;;9.77;7.18;;;5.50;32.90;;;;;;5077834;28;20413;-78
2021/04/16 03:22:15;;;;;;;12.80;7.17;;;5.60;33.40;;;;;;5060464;28;20416;-79
2021/04/16 03:24:41;;;;;;;10.48;7.20;;;5.50;34.80;;;;;;5058853;28;20401;-79
2021/04/16 03:27:07;;;;;;;12.40;8.10;;;5.60;34.10;;;;;;5072186;28;20396;-78
2021/04/16 03:29:34;;;;;;;13.13;7.53;;;5.60;34.90;;;;;;5078660;28;20412;-78
2021/04/16 03:31:59;;;;;;;22.85;7.57;;;5.60;34.70;;;;;;5061568;28;20393;-78
2021/04/16 03:34:25;;;;;;;11.32;7.32;;;5.60;35.60;;;;;;5067739;28;20405;-82
2021/04/16 03:36:50;;;;;;;10.57;7.57;;;5.60;37.00;;;;;;5065899;28;20431;-81
2021/04/16 03:39:16;;;;;;;14.30;7.50;;;5.60;36.30;;;;;;5078477;28;20385;-79
2021/04/16 03:41:42;;;;;;;12.00;7.67;;;5.70;35.00;;;;;;5078121;28;20401;-78
2021/04/16 03:44:08;;;;;;;9.43;7.00;;;5.70;34.30;;;;;;5078571;28;20386;-78
2021/04/16 03:46:34;;;;;;;13.40;8.37;;;5.70;34.60;;;;;;5059394;28;20518;-80
2021/04/16 03:49:00;;;;;;;14.73;7.28;;;5.70;35.30;;;;;;5072948;28;20405;-84
2021/04/16 03:51:25;;;;;;;12.93;7.90;;;5.60;34.60;;;;;;5053993;28;20393;-81
2021/04/16 03:53:51;;;;;;;13.87;7.70;;;5.60;34.40;;;;;;5073572;28;20461;-80
2021/04/16 03:56:18;;;;;;;12.27;7.10;;;5.50;34.60;;;;;;5059918;28;20437;-80
2021/04/16 03:58:45;;;;;;;10.40;7.70;;;5.50;34.70;;;;;;5048496;28;20396;-84
2021/04/16 04:01:11;;;;;;;11.25;7.53;;;5.40;35.60;;;;;;5075172;28;20401;-78
2021/04/16 04:03:37;;;;;;;12.88;8.55;;;5.40;36.20;;;;;;5076147;28;20381;-81
2021/04/16 04:06:06;;;;;;;12.63;7.65;;;5.50;35.70;;;;;;5070404;28;20396;-78
2021/04/16 04:08:32;;;;;;;10.95;8.40;;;5.50;36.20;;;;;;5072484;28;20425;-82
2021/04/16 04:10:58;;;;;;;16.60;9.65;;;5.50;34.70;;;;;;5071955;28;20439;-78
2021/04/16 04:13:24;;;;;;;16.15;10.50;;;5.50;37.40;;;;;;5072439;28;20461;-80
2021/04/16 04:15:50;;;;;;;19.75;13.52;;;5.60;36.90;;;;;;5069807;28;20393;-80
2021/04/16 04:18:16;;;;;;;18.33;11.50;;;5.40;37.40;;;;;;5070557;28;20423;-80
2021/04/16 04:20:41;;;;;;;20.52;12.35;;;5.50;36.20;;;;;;5055954;28;20397;-82
2021/04/16 04:23:08;;;;;;;16.02;10.63;;;5.60;35.60;;;;;;5073130;28;20381;-80
2021/04/16 04:25:34;;;;;;;17.38;10.00;;;5.80;33.90;;;;;;5045410;28;20385;-80
2021/04/16 04:28:03;;;;;;;15.75;9.40;;;5.80;32.70;;;;;;5060197;28;20400;-79
2021/04/16 04:30:35;;;;;;;12.50;8.60;;;5.80;33.40;;;;;;5059025;28;20382;-83
2021/04/16 04:33:02;;;;;;;12.18;8.02;;;5.70;33.20;;;;;;5075131;28;20377;-81
2021/04/16 04:35:28;;;;;;;11.75;8.13;;;5.70;33.10;;;;;;5057192;28;20450;-79
2021/04/16 04:37:54;;;;;;;12.17;8.13;;;5.70;33.50;;;;;;5069641;28;20453;-82
2021/04/16 04:40:23;;;;;;;15.40;8.55;;;5.70;33.10;;;;;;5064163;28;20404;-81
2021/04/16 04:42:48;;;;;;;16.05;8.52;;;5.60;33.20;;;;;;5045260;28;20398;-81
2021/04/16 04:45:15;;;;;;;9.18;7.30;;;5.60;35.30;;;;;;5063302;28;20455;-83
2021/04/16 04:47:41;;;;;;;11.50;7.80;;;5.70;36.50;;;;;;5045663;28;20400;-79
2021/04/16 04:50:08;;;;;;;15.00;7.70;;;5.60;34.40;;;;;;5061941;28;20497;-82
2021/04/16 04:52:36;;;;;;;13.47;8.03;;;5.60;34.90;;;;;;5062503;28;20829;-80
2021/04/16 04:55:09;;;;;;;11.80;7.60;;;5.50;36.20;;;;;;5064694;28;20381;-80
2021/04/16 04:57:35;;;;;;;14.77;8.38;;;5.40;35.30;;;;;;5064129;28;20376;-80
2021/04/16 05:00:01;;;;;;;12.95;7.90;;;5.40;36.50;;;;;;5067346;28;20385;-81
2021/04/16 05:02:27;;;;;;;13.30;8.38;;;5.30;36.60;;;;;;5055719;28;20461;-77
2021/04/16 05:04:53;;;;;;;15.02;8.40;;;5.30;37.20;;;;;;5055979;28;20385;-78
2021/04/16 05:07:18;;;;;;;13.80;8.20;;;5.30;36.50;;;;;;5074472;28;20412;-77
2021/04/16 05:09:44;;;;;;;13.20;8.40;;;5.30;37.10;;;;;;5076160;28;20423;-79
2021/04/16 05:12:11;;;;;;;10.90;7.68;;;5.40;36.30;;;;;;5076505;28;20412;-79
2021/04/16 05:14:36;;;;;;;11.50;8.27;;;5.40;36.10;;;;;;5075651;28;20412;-78
2021/04/16 05:17:03;;;;;;;10.32;7.90;;;5.40;35.90;;;;;;5066854;28;20402;-79
2021/04/16 05:19:28;;;;;;;14.38;9.27;;;5.40;36.60;;;;;;5061271;28;20491;-80
2021/04/16 05:21:56;;;;;;;15.70;8.30;;;5.40;38.10;;;;;;5042540;28;20400;-79
2021/04/16 05:24:22;;;;;;;19.02;9.30;;;5.50;37.70;;;;;;5041851;28;20398;-82
2021/04/16 05:26:48;;;;;;;12.30;8.40;;;5.50;37.30;;;;;;5060822;28;20388;-79
2021/04/16 05:29:13;;;;;;;12.43;8.50;;;5.50;36.80;;;;;;5042901;28;20478;-80
2021/04/16 05:31:39;;;;;;;13.20;8.30;;;5.60;36.90;;;;;;5040949;28;20397;-80
2021/04/16 05:34:05;;;;;;;14.32;8.20;;;5.60;35.90;;;;;;5064413;28;20380;-79
2021/04/16 05:36:31;;;;;;;14.32;9.15;;;5.60;37.00;;;;;;5076015;28;20401;-79
2021/04/16 05:38:57;;;;;;;14.10;8.50;;;5.70;37.60;;;;;;5067961;28;20400;-82
2021/04/16 05:41:23;;;;;;;13.43;8.20;;;5.80;35.60;;;;;;5060253;28;20393;-80
2021/04/16 05:43:49;;;;;;;14.73;8.60;;;5.80;34.90;;;;;;5062584;28;20904;-80
2021/04/16 05:46:15;;;;;;;11.60;8.00;;;5.70;34.60;;;;;;5073919;28;20397;-79
2021/04/16 05:48:42;;;;;;;15.55;8.63;;;5.80;34.80;;;;;;5056231;28;20405;-79
2021/04/16 05:51:08;;;;;;;15.02;8.68;;;5.80;34.50;;;;;;5069516;28;20492;-80
2021/04/16 05:53:34;;;;;;;12.95;8.52;;;5.80;34.20;;;;;;5043071;28;20386;-81
2021/04/16 05:56:00;;;;;;;13.83;8.73;;;5.90;35.70;;;;;;5059603;28;20377;-81
2021/04/16 05:58:25;;;;;;;15.87;8.80;;;6.00;35.40;;;;;;5041810;28;20978;-81
2021/04/16 06:00:51;;;;;;;16.50;8.95;;;6.10;33.50;;;;;;5041247;28;20396;-82
2021/04/16 06:03:18;;;;;;;16.00;8.48;;;6.20;33.20;;;;;;5059519;28;20396;-82
2021/04/16 06:05:43;;;;;;;13.25;8.98;;;6.20;32.50;;;;;;5042746;28;20454;-82
2021/04/16 06:08:10;;;;;;;13.77;8.90;;;6.10;33.70;;;;;;5061377;28;20393;-83
2021/04/16 06:10:36;;;;;;;12.68;8.80;;;6.10;33.40;;;;;;5045452;28;20375;-83
2021/04/16 06:13:01;;;;;;;17.55;8.80;;;6.10;33.30;;;;;;5040790;28;20444;-82
2021/04/16 06:15:29;;;;;;;12.55;8.60;;;6.10;33.60;;;;;;5068879;28;20393;-78
2021/04/16 06:17:56;;;;;;;11.45;8.30;;;6.10;34.30;;;;;;5073502;28;20389;-79
2021/04/16 06:20:24;;;;;;;11.20;8.25;;;6.10;34.10;;;;;;5073577;28;20464;-80
2021/04/16 06:22:52;;;;;;;14.50;8.40;;;6.10;34.60;;;;;;5048568;28;20385;-82
2021/04/16 06:25:22;;;;;;;14.00;8.90;;;6.20;34.20;;;;;;5065727;28;20631;-82
2021/04/16 06:27:48;;;;;;;16.65;8.50;;;6.30;34.10;;;;;;5064425;28;20457;-79
2021/04/16 06:30:15;;;;;;;17.60;9.27;;;6.30;33.60;;;;;;5049691;28;20389;-80
2021/04/16 06:32:40;;;;;;;21.48;9.38;;;6.30;34.90;;;;;;5038430;28;20386;-76
2021/04/16 06:35:08;;;;;;;13.13;8.77;;;6.20;33.50;;;;;;5053704;28;20389;-76
2021/04/16 06:37:34;;;;;;;15.63;9.85;;;6.30;33.60;;;;;;5055739;28;20885;-76
2021/04/16 06:39:59;;;;;;;15.27;8.65;;;6.40;33.30;;;;;;5063171;28;20508;-76
2021/04/16 06:42:31;;;;;;;14.52;8.70;;;6.40;32.60;;;;;;5069229;28;20405;-77
2021/04/16 06:44:59;;;;;;;19.55;8.90;;;6.60;32.00;;;;;;5040803;28;20459;-76
2021/04/16 06:47:35;;;;;;;12.63;8.50;;;6.80;31.30;;;;;;5045811;28;20381;-81
2021/04/16 06:50:03;;;;;;;13.77;9.00;;;6.90;31.20;;;;;;5047555;28;20397;-79
2021/04/16 06:52:34;;;;;;;36.75;12.20;;;7.10;31.40;;;;;;5050815;28;20386;-83
2021/04/16 06:55:06;;;;;;;24.10;9.90;;;7.30;30.10;;;;;;5057282;28;20815;-80
2021/04/16 06:57:41;;;;;;;17.10;8.98;;;7.60;30.00;;;;;;5071272;28;20405;-81
2021/04/16 07:00:13;;;;;;;13.50;9.20;;;7.40;28.00;;;;;;5073947;28;20393;-82
2021/04/16 07:02:46;;;;;;;21.80;9.60;;;7.20;29.30;;;;;;5078879;28;20415;-84
2021/04/16 07:05:34;;;;;;;13.98;9.30;;;6.90;30.40;;;;;;5064669;28;20437;-77
2021/04/16 07:08:00;;;;;;;18.27;10.05;;;6.70;30.70;;;;;;5041804;28;20383;-76
2021/04/16 07:10:33;;;;;;;18.70;10.07;;;6.70;32.00;;;;;;5046518;28;20399;-76
2021/04/16 07:13:01;;;;;;;15.98;9.27;;;6.70;31.80;;;;;;5025260;28;20385;-73
2021/04/16 07:15:44;;;;;;;19.60;10.13;;;6.80;30.90;;;;;;5058709;28;20810;-74
2021/04/16 07:18:21;;;;;;;14.23;9.50;;;6.80;30.90;;;;;;5058806;28;20393;-74
2021/04/16 07:20:47;;;;;;;15.52;9.98;;;6.90;31.20;;;;;;5059133;28;20399;-75
2021/04/16 07:23:15;;;;;;;16.40;9.33;;;7.00;32.30;;;;;;5059831;28;20742;-76
2021/04/16 07:25:44;;;;;;;12.07;8.83;;;7.30;30.60;;;;;;5039702;28;20397;-77
2021/04/16 07:28:14;;;;;;;14.77;8.33;;;7.40;28.40;;;;;;5022602;28;20492;-77
2021/04/16 07:30:45;;;;;;;12.65;8.90;;;7.40;28.00;;;;;;5051947;28;20770;-75
2021/04/16 07:33:38;;;;;;;14.68;9.73;;;7.50;29.20;;;;;;5062487;28;20485;-76
2021/04/16 07:36:36;;;;;;;11.68;8.73;;;7.60;29.90;;;;;;5063367;28;20407;-77
2021/04/16 07:41:54;;;;;;;10.10;7.95;;;8.10;26.30;;;;;;5063056;28;20459;-75
2021/04/16 07:44:36;;;;;;;14.05;8.18;;;8.10;23.10;;;;;;5048972;28;20384;-75
2021/04/16 07:47:13;;;;;;;11.20;7.90;;;8.10;24.20;;;;;;5053059;28;20455;-74
2021/04/16 07:49:53;;;;;;;11.18;8.20;;;7.90;24.70;;;;;;5053817;28;20466;-74
2021/04/16 07:52:38;;;;;;;11.93;7.50;;;8.10;24.00;;;;;;5054858;28;20454;-74
2021/04/16 07:55:04;;;;;;;12.60;7.88;;;8.20;22.60;;;;;;5052205;28;20926;-75
2021/04/16 07:57:30;;;;;;;11.13;7.77;;;8.20;22.60;;;;;;5053960;28;20385;-74
2021/04/16 08:00:06;;;;;;;9.75;6.70;;;8.20;23.20;;;;;;5052025;28;20426;-75
2021/04/16 08:02:45;;;;;;;10.30;6.77;;;8.30;21.30;;;;;;5052036;28;20405;-76
2021/04/16 08:05:26;;;;;;;11.77;7.57;;;8.40;21.60;;;;;;5052718;28;20389;-78
2021/04/16 08:08:12;;;;;;;11.13;7.13;;;8.60;20.80;;;;;;5052509;28;20445;-76
2021/04/16 08:10:38;;;;;;;10.95;7.10;;;8.60;19.70;;;;;;5042129;28;20516;-76
2021/04/16 08:13:20;;;;;;;12.85;7.45;;;8.60;20.40;;;;;;5055827;28;20409;-77
2021/04/16 08:15:47;;;;;;;9.30;6.82;;;8.70;20.50;;;;;;5055584;28;20393;-77
2021/04/16 08:18:19;;;;;;;10.52;7.05;;;8.70;20.50;;;;;;5055855;28;20486;-77
2021/04/16 08:21:02;;;;;;;12.32;7.15;;;8.70;19.90;;;;;;5054579;28;20485;-76
2021/04/16 08:23:43;;;;;;;11.32;7.80;;;8.70;20.10;;;;;;5062186;28;20402;-76
2021/04/16 08:26:09;;;;;;;10.93;7.38;;;8.70;20.60;;;;;;5059631;28;20478;-77
2021/04/16 08:28:51;;;;;;;10.63;7.10;;;8.80;20.10;;;;;;5054862;28;20474;-76
2021/04/16 08:31:27;;;;;;;9.20;6.50;;;8.80;19.80;;;;;;5055966;28;20392;-76
2021/04/16 08:34:09;;;;;;;8.98;6.32;;;8.90;19.10;;;;;;5053705;28;20377;-76
2021/04/16 08:36:38;;;;;;;8.80;5.50;;;8.90;18.80;;;;;;5055641;28;20421;-77
2021/04/16 08:39:12;;;;;;;6.43;5.32;;;8.80;17.30;;;;;;5055927;28;20429;-78
2021/04/16 08:41:50;;;;;;;6.57;5.22;;;8.80;16.30;;;;;;5066256;28;20827;-77
2021/04/16 08:44:17;;;;;;;11.15;5.00;;;8.80;16.60;;;;;;5059240;28;20457;-77
2021/04/16 08:46:45;;;;;;;10.23;5.50;;;8.90;15.60;;;;;;5060056;28;20393;-77
2021/04/16 08:49:33;;;;;;;9.77;5.38;;;8.90;16.00;;;;;;5055767;28;20894;-77
2021/04/16 08:52:31;;;;;;;9.45;5.75;;;9.10;16.20;;;;;;5055970;28;20401;-76
2021/04/16 08:55:14;;;;;;;6.00;5.00;;;9.30;16.80;;;;;;5052529;28;20513;-75
2021/04/16 08:57:51;;;;;;;7.83;5.20;;;9.50;15.60;;;;;;5031656;28;20464;-75
2021/04/16 09:00:39;;;;;;;7.20;4.80;;;9.70;14.60;;;;;;5052105;28;20390;-76
2021/04/16 09:03:15;;;;;;;7.68;4.90;;;9.80;13.00;;;;;;5033955;28;20480;-75
2021/04/16 09:05:59;;;;;;;11.32;5.20;;;9.90;13.60;;;;;;5053311;28;20373;-75
2021/04/16 09:08:45;;;;;;;6.57;4.65;;;10.00;13.90;;;;;;5052448;28;20424;-76
2021/04/16 09:11:11;;;;;;;9.70;5.00;;;10.30;13.60;;;;;;5052205;28;20412;-74
2021/04/16 09:13:40;;;;;;;11.45;4.95;;;10.50;12.40;;;;;;5051835;28;20397;-76
2021/04/16 09:16:15;;;;;;;8.25;5.18;;;10.60;11.60;;;;;;5053398;28;20385;-76
2021/04/16 09:19:03;;;;;;;7.20;5.20;;;10.50;12.20;;;;;;5052014;28;20743;-76
2021/04/16 09:21:32;;;;;;;7.22;5.22;;;10.40;12.90;;;;;;5051544;28;20459;-75
2021/04/16 09:24:04;;;;;;;8.33;5.13;;;10.40;12.60;;;;;;5061053;28;20488;-76
2021/04/16 09:26:48;;;;;;;9.03;5.80;;;10.40;11.90;;;;;;5055373;28;20478;-76
2021/04/16 09:29:29;;;;;;;9.10;5.60;;;10.70;11.70;;;;;;5056062;28;20754;-75
2021/04/16 09:31:57;;;;;;;7.93;5.07;;;10.90;11.70;;;;;;5054041;28;20478;-75
2021/04/16 09:34:28;;;;;;;8.68;4.80;;;11.00;10.40;;;;;;5051067;28;20417;-75
2021/04/16 09:37:13;;;;;;;6.13;4.90;;;10.60;10.60;;;;;;5052707;28;20473;-75
2021/04/16 09:39:42;;;;;;;11.05;5.10;;;10.40;10.90;;;;;;5050667;28;20406;-76
2021/04/16 09:42:34;;;;;;;7.07;4.95;;;10.50;10.70;;;;;;5051379;28;20401;-75
2021/04/16 09:45:01;;;;;;;9.50;4.60;;;10.70;10.50;;;;;;5051485;28;20381;-77
2021/04/16 09:47:49;;;;;;;6.35;4.40;;;10.60;10.60;;;;;;5051402;28;20389;-76
2021/04/16 09:50:36;;;;;;;4.80;4.30;;;10.80;10.30;;;;;;5050051;28;20416;-74
2021/04/16 09:53:13;;;;;;;7.17;4.10;;;10.90;10.00;;;;;;5051303;28;20381;-75
2021/04/16 09:55:45;;;;;;;9.00;4.70;;;11.10;9.40;;;;;;5049869;28;20480;-76
2021/04/16 09:58:12;;;;;;;8.00;5.10;;;11.30;9.60;;;;;;5052714;28;20438;-76
2021/04/16 10:00:59;;;;;;;5.88;4.40;;;11.50;8.90;;;;;;5051145;28;20866;-75
2021/04/16 10:03:59;;;;;;;7.70;4.80;;;11.60;8.10;;;;;;5036312;28;20382;-74
2021/04/16 10:06:28;;;;;;;5.28;4.30;;;11.90;8.20;;;;;;5050511;28;20392;-74
2021/04/16 10:09:08;;;;;;;3.72;3.35;;;12.20;7.20;;;;;;5031291;28;20407;-74
2021/04/16 10:11:35;;;;;;;5.87;3.43;;;11.90;6.30;;;;;;5031443;28;20744;-75
2021/04/16 10:14:21;;;;;;;4.63;3.70;;;11.90;6.20;;;;;;5031248;28;20386;-77
2021/04/16 10:16:54;;;;;;;4.22;3.13;;;11.70;6.30;;;;;;5032720;28;20391;-75
2021/04/16 10:19:24;;;;;;;7.32;3.72;;;11.80;5.90;;;;;;5049787;28;20401;-75
2021/04/16 10:21:50;;;;;;;4.00;3.60;;;11.90;5.70;;;;;;5050976;28;20393;-74
2021/04/16 11:24:12;;;;;;;6.50;3.20;;;12.90;2.80;;;;;;5059248;28;20400;-77
2021/04/16 12:39:35;;;;;;;2.70;2.50;;;13.20;1.30;;;;;;5073290;28;20511;-78
2021/04/16 12:42:04;;;;;;;4.30;2.27;;;13.70;1.00;;;;;;5054743;28;20393;-77
2021/04/16 12:44:41;;;;;;;3.53;2.10;;;13.40;1.00;;;;;;5044993;28;20795;-77
2021/04/16 12:47:13;;;;;;;4.25;2.25;;;13.50;1.00;;;;;;5035186;28;20399;-77
2021/04/16 12:49:39;;;;;;;6.50;2.80;;;13.70;1.00;;;;;;5045615;28;20405;-76
2021/04/16 12:52:06;;;;;;;4.20;2.42;;;14.00;1.00;;;;;;5055422;28;20851;-77
2021/04/16 12:54:40;;;;;;;2.92;2.20;;;14.10;1.00;;;;;;5056696;28;20811;-78
2021/04/16 12:57:14;;;;;;;4.03;2.47;;;13.80;1.00;;;;;;5053809;28;20458;-78
2021/04/16 12:59:40;;;;;;;4.15;2.80;;;13.70;1.00;;;;;;5054155;28;20947;-76
2021/04/16 13:02:07;;;;;;;4.03;3.03;;;13.90;1.00;;;;;;5058694;28;20421;-77
2021/04/16 13:04:40;;;;;;;2.90;2.70;;;14.50;1.00;;;;;;5058639;28;20405;-77
2021/04/16 13:07:05;;;;;;;5.18;2.80;;;14.20;1.00;;;;;;5055874;28;20388;-78
2021/04/16 13:09:31;;;;;;;4.20;2.83;;;13.80;1.00;;;;;;5054601;28;20417;-80
2021/04/16 13:11:56;;;;;;;3.20;2.90;;;13.80;1.70;;;;;;5062285;28;20496;-77
2021/04/16 13:14:22;;;;;;;2.80;2.60;;;13.90;1.00;;;;;;5065054;28;20536;-77
2021/04/16 13:16:47;;;;;;;4.43;2.90;;;14.00;1.70;;;;;;5055581;28;20385;-77
2021/04/16 13:19:37;;;;;;;5.20;3.30;;;14.30;1.00;;;;;;5053088;28;20428;-78
2021/04/16 13:22:07;;;;;;;6.50;3.85;;;14.80;1.70;;;;;;5043805;28;20406;-77
2021/04/16 13:24:34;;;;;;;3.45;3.10;;;15.10;1.00;;;;;;5064488;28;20389;-77
2021/04/16 13:27:02;;;;;;;5.00;3.60;;;15.40;1.00;;;;;;5055734;28;20397;-77
2021/04/16 13:29:29;;;;;;;4.55;3.30;;;15.20;1.00;;;;;;5050746;28;20401;-77
2021/04/16 13:31:55;;;;;;;3.40;3.20;;;14.90;1.00;;;;;;5053270;28;20394;-78
2021/04/16 13:34:22;;;;;;;3.40;3.10;;;14.50;1.00;;;;;;5053498;28;20381;-76
2021/04/16 13:36:47;;;;;;;3.47;3.17;;;15.00;1.00;;;;;;5060052;28;20420;-77
2021/04/16 13:39:14;;;;;;;4.20;3.30;;;15.80;1.00;;;;;;5062666;28;20451;-77
2021/04/16 13:41:39;;;;;;;4.72;3.20;;;16.30;1.00;;;;;;5065330;22;20440;-72
2021/04/16 13:44:06;;;;;;;5.25;3.25;;;16.00;1.00;;;;;;5051038;28;20386;-70
2021/04/16 13:46:36;;;;;;;6.63;3.55;;;15.60;1.00;;;;;;5050237;28;20468;-72
2021/04/16 13:49:08;;;;;;;7.43;3.70;;;15.60;1.00;;;;;;5034695;28;20520;-72
2021/04/16 13:51:34;;;;;;;4.22;3.05;;;15.90;1.00;;;;;;5051492;28;20405;-72
2021/04/16 13:54:02;;;;;;;3.70;3.22;;;16.20;1.00;;;;;;5050875;28;20397;-70
2021/04/16 13:56:28;;;;;;;5.80;3.60;;;16.40;1.00;;;;;;5051128;28;20378;-70
2021/04/16 13:58:53;;;;;;;4.75;3.20;;;16.40;1.00;;;;;;5050871;28;20390;-69
2021/04/16 14:01:19;;;;;;;13.18;3.60;;;16.30;1.00;;;;;;5050689;28;20458;-69
2021/04/16 14:03:49;;;;;;;5.30;3.00;;;16.10;1.00;;;;;;5050165;28;20393;-70
2021/04/16 14:06:24;;;;;;;3.40;3.00;;;16.00;1.00;;;;;;5051097;28;20468;-70
2021/04/16 14:09:23;;;;;;;10.15;3.38;;;16.30;1.00;;;;;;5050701;28;20555;-69
2021/04/16 14:11:49;;;;;;;3.57;3.27;;;17.20;1.00;;;;;;5007560;28;20390;-69
2021/04/16 14:14:19;;;;;;;5.70;3.38;;;17.40;1.00;;;;;;5050628;28;20395;-68
2021/04/16 14:16:48;;;;;;;3.50;3.20;;;17.10;1.00;;;;;;5051089;28;20482;-69
2021/04/16 14:19:24;;;;;;;6.65;3.22;;;16.70;1.00;;;;;;5051249;28;20389;-70
2021/04/16 14:21:52;;;;;;;4.63;3.38;;;17.50;1.00;;;;;;5050667;28;20385;-71
2021/04/16 14:24:18;;;;;;;3.90;3.50;;;18.50;1.00;;;;;;5050120;28;20394;-70
2021/04/16 14:26:46;;;;;;;5.10;3.15;;;18.70;1.00;;;;;;5045015;28;22231;-70
2021/04/16 14:29:12;;;;;;;5.00;3.40;;;18.10;1.00;;;;;;5029846;28;20497;-69
2021/04/16 14:31:40;;;;;;;3.55;3.05;;;17.50;1.00;;;;;;5049641;28;20467;-70
2021/04/16 14:34:07;;;;;;;5.55;3.15;;;16.30;1.00;;;;;;5049594;28;20399;-69
2021/04/16 14:36:33;;;;;;;4.15;3.20;;;15.50;1.00;;;;;;5050413;28;20482;-69
2021/04/16 14:38:59;;;;;;;4.43;3.40;;;15.20;1.00;;;;;;5050074;28;20401;-72
2021/04/16 14:41:28;;;;;;;3.33;2.97;;;15.00;1.00;;;;;;5031998;28;20417;-71
2021/04/16 14:43:54;;;;;;;3.50;3.20;;;15.20;1.00;;;;;;5049525;28;20407;-69
2021/04/16 14:46:20;;;;;;;5.50;3.58;;;15.70;1.00;;;;;;5050206;28;20377;-68
2021/04/16 14:48:45;;;;;;;5.07;3.17;;;15.70;1.00;;;;;;5048475;28;20475;-69
2021/04/16 14:51:11;;;;;;;4.25;2.90;;;15.60;1.00;;;;;;5049128;28;20707;-69
2021/04/16 14:53:42;;;;;;;6.30;4.03;;;15.30;1.00;;;;;;5048699;28;20428;-69
2021/04/16 14:56:10;;;;;;;3.78;3.20;;;15.00;1.00;;;;;;5049279;28;20377;-70
2021/04/16 14:58:41;;;;;;;5.00;3.30;;;14.50;1.00;;;;;;5048417;28;20437;-70
2021/04/16 15:01:11;;;;;;;5.43;3.20;;;14.80;1.00;;;;;;5039407;28;20418;-71
2021/04/16 15:03:36;;;;;;;4.13;3.15;;;15.20;1.00;;;;;;5037124;28;20616;-71
2021/04/16 15:06:06;;;;;;;5.67;3.80;;;15.30;1.00;;;;;;5029993;28;20481;-72
2021/04/16 15:08:40;;;;;;;3.80;3.40;;;15.20;1.00;;;;;;5029494;28;20406;-70
2021/04/16 15:11:09;;;;;;;4.70;3.40;;;15.70;1.00;;;;;;5030021;28;20784;-71
2021/04/16 15:13:36;;;;;;;4.60;3.00;;;16.30;1.00;;;;;;5030987;28;20390;-71
2021/04/16 15:16:05;;;;;;;4.03;3.30;;;17.00;1.00;;;;;;5033750;28;20456;-70
2021/04/16 15:18:32;;;;;;;5.25;3.70;;;17.60;1.00;;;;;;5032748;28;20521;-71
2021/04/16 15:21:03;;;;;;;3.38;2.83;;;18.50;1.00;;;;;;5032720;28;20441;-71